Time;durP1;ratioP1;P1;durP2;ratioP2;P2;SDS_P1;SDS_P2;PMS_P1;PMS_P2;Temp;Humidity;BMP_temperature;BMP_pressure;BME280_temperature;BME280_humidity;BME280_pressure;Samples;Min_cycle;Max_cycle;Signal;HPM_P1;HPM_P2
2024/01/18 00:00:49;;;;;;;18.50;14.70;;;1.30;99.90;;;;;;5095126;28;20206;-84
2024/01/18 00:03:15;;;;;;;20.73;15.13;;;1.40;99.90;;;;;;5093621;28;20242;-84
2024/01/18 00:05:40;;;;;;;23.00;14.67;;;1.40;99.90;;;;;;5092344;28;20183;-82
2024/01/18 00:08:06;;;;;;;20.40;15.13;;;1.30;99.90;;;;;;5094283;28;20183;-83
2024/01/18 00:10:32;;;;;;;21.87;15.07;;;1.30;99.90;;;;;;5093197;28;20632;-84
2024/01/18 00:12:57;;;;;;;23.00;16.17;;;1.40;99.90;;;;;;5095145;28;20164;-83
2024/01/18 00:15:23;;;;;;;20.90;14.13;;;1.50;99.90;;;;;;5093978;28;20182;-83
2024/01/18 00:17:49;;;;;;;23.50;16.40;;;1.40;99.90;;;;;;5095898;28;20187;-82
2024/01/18 00:20:15;;;;;;;21.23;15.80;;;1.40;99.90;;;;;;5102986;28;20191;-83
2024/01/18 00:22:40;;;;;;;22.10;15.40;;;1.40;99.90;;;;;;5101121;28;20586;-82
2024/01/18 00:25:07;;;;;;;22.77;15.87;;;1.30;99.90;;;;;;5093608;28;20225;-82
2024/01/18 00:27:33;;;;;;;23.13;15.70;;;1.30;99.90;;;;;;5094777;28;20163;-83
2024/01/18 00:29:58;;;;;;;20.23;15.57;;;1.30;99.90;;;;;;5093321;28;20186;-82
2024/01/18 00:32:24;;;;;;;21.87;14.70;;;1.30;99.90;;;;;;5093356;28;20608;-83
2024/01/18 00:34:51;;;;;;;25.47;16.53;;;1.40;99.90;;;;;;5092385;28;20171;-83
2024/01/18 00:37:16;;;;;;;20.97;15.13;;;1.30;99.90;;;;;;5092332;28;20766;-83
2024/01/18 00:39:43;;;;;;;21.63;16.03;;;1.40;99.90;;;;;;5092992;28;20203;-82
2024/01/18 00:42:09;;;;;;;20.80;14.97;;;1.40;99.90;;;;;;5092752;28;20317;-83
2024/01/18 00:44:34;;;;;;;22.40;14.83;;;1.40;99.90;;;;;;5092408;28;20199;-83
2024/01/18 00:47:00;;;;;;;20.67;15.33;;;1.40;99.90;;;;;;5092159;28;20178;-82
2024/01/18 00:49:26;;;;;;;19.87;13.40;;;1.50;99.90;;;;;;5092699;28;20650;-83
2024/01/18 00:51:51;;;;;;;22.20;14.63;;;1.40;99.90;;;;;;5093969;28;20190;-83
2024/01/18 00:54:17;;;;;;;19.20;14.27;;;1.30;99.90;;;;;;5092852;28;20175;-82
2024/01/18 00:56:43;;;;;;;20.00;13.97;;;1.30;99.90;;;;;;5092158;28;20678;-82
2024/01/18 00:59:08;;;;;;;19.97;13.60;;;1.30;99.90;;;;;;5093860;28;20168;-84
2024/01/18 01:01:34;;;;;;;21.40;15.70;;;1.30;99.90;;;;;;5092353;28;20602;-82
2024/01/18 01:04:00;;;;;;;20.60;14.67;;;1.30;99.90;;;;;;5092127;28;20211;-83
2024/01/18 01:06:26;;;;;;;19.40;14.00;;;1.30;99.90;;;;;;5091758;28;20172;-83
2024/01/18 01:08:51;;;;;;;22.27;15.60;;;1.20;99.90;;;;;;5092095;28;20662;-82
2024/01/18 01:11:17;;;;;;;23.67;14.90;;;1.10;99.90;;;;;;5092457;28;20183;-83
2024/01/18 01:13:44;;;;;;;19.20;14.13;;;1.20;99.90;;;;;;5091158;28;20217;-83
2024/01/18 01:16:10;;;;;;;22.03;14.73;;;1.20;99.90;;;;;;5091780;28;20179;-82
2024/01/18 01:18:36;;;;;;;18.73;13.17;;;1.30;99.90;;;;;;5091290;28;20187;-83
2024/01/18 01:21:03;;;;;;;19.20;14.80;;;1.40;99.90;;;;;;5092394;28;20216;-83
2024/01/18 01:23:29;;;;;;;19.50;13.80;;;1.40;99.90;;;;;;5092295;28;20210;-83
2024/01/18 01:25:55;;;;;;;16.10;13.10;;;1.60;99.90;;;;;;5092374;28;20175;-82
2024/01/18 01:28:21;;;;;;;17.60;12.43;;;1.40;99.90;;;;;;5092211;28;20199;-82
2024/01/18 01:30:47;;;;;;;20.37;13.67;;;1.30;99.90;;;;;;5092529;28;20242;-82
2024/01/18 01:33:12;;;;;;;17.70;13.23;;;1.30;99.90;;;;;;5091394;28;20627;-82
2024/01/18 01:35:38;;;;;;;19.33;14.10;;;1.20;99.90;;;;;;5092371;28;20180;-81
2024/01/18 01:38:04;;;;;;;20.13;13.93;;;1.20;99.90;;;;;;5091027;28;20180;-83
2024/01/18 01:40:29;;;;;;;20.63;13.40;;;1.10;99.90;;;;;;5091176;28;20190;-83
2024/01/18 01:42:55;;;;;;;20.07;14.50;;;1.20;99.90;;;;;;5091734;28;20199;-82
2024/01/18 01:45:21;;;;;;;21.70;14.97;;;1.30;99.90;;;;;;5091399;28;20214;-83
2024/01/18 01:47:46;;;;;;;21.73;15.13;;;1.40;99.90;;;;;;5091614;28;20225;-83
2024/01/18 01:50:12;;;;;;;22.67;14.03;;;1.40;99.90;;;;;;5091314;28;20178;-82
2024/01/18 01:52:39;;;;;;;20.70;13.93;;;1.30;99.90;;;;;;5092012;28;20179;-83
2024/01/18 01:55:09;;;;;;;20.73;14.17;;;1.30;99.90;;;;;;5091845;28;20171;-82
2024/01/18 01:57:35;;;;;;;18.10;13.43;;;1.20;99.90;;;;;;5092826;28;20211;-82
2024/01/18 02:00:02;;;;;;;18.40;13.90;;;1.10;99.90;;;;;;5090571;28;20175;-83
2024/01/18 02:02:28;;;;;;;20.00;13.97;;;1.10;99.90;;;;;;5091398;28;20168;-82
2024/01/18 02:04:54;;;;;;;19.47;15.07;;;1.10;99.90;;;;;;5098398;28;20270;-82
2024/01/18 02:07:22;;;;;;;25.43;15.10;;;1.20;99.90;;;;;;5100422;28;20206;-83
2024/01/18 02:09:47;;;;;;;20.37;14.63;;;1.20;99.90;;;;;;5094185;28;20183;-83
2024/01/18 02:12:15;;;;;;;24.30;16.00;;;1.20;99.90;;;;;;5091577;28;20699;-83
2024/01/18 02:14:40;;;;;;;18.50;14.37;;;1.30;99.90;;;;;;5092869;28;20220;-82
2024/01/18 02:17:06;;;;;;;20.80;15.33;;;1.20;99.90;;;;;;5091683;28;20191;-82
2024/01/18 02:19:32;;;;;;;20.50;14.70;;;1.20;99.90;;;;;;5090500;28;20632;-82
2024/01/18 02:22:01;;;;;;;21.03;15.20;;;1.20;99.90;;;;;;5091977;28;20171;-83
2024/01/18 02:24:38;;;;;;;23.37;16.50;;;1.10;99.90;;;;;;5090681;28;20214;-83
2024/01/18 02:27:04;;;;;;;23.63;16.17;;;1.20;99.90;;;;;;5090898;28;20253;-82
2024/01/18 02:29:30;;;;;;;20.63;15.77;;;1.30;99.90;;;;;;5091645;28;20705;-82
2024/01/18 02:31:56;;;;;;;23.37;15.87;;;1.30;99.90;;;;;;5091346;28;20285;-82
2024/01/18 02:34:22;;;;;;;20.23;14.37;;;1.30;99.90;;;;;;5091191;28;20191;-83
2024/01/18 02:36:48;;;;;;;19.37;14.43;;;1.50;99.90;;;;;;5091001;28;20175;-82
2024/01/18 02:39:13;;;;;;;20.77;15.37;;;1.40;99.90;;;;;;5092702;28;20178;-83
2024/01/18 02:41:41;;;;;;;23.13;15.33;;;1.50;99.90;;;;;;5091416;28;20171;-82
2024/01/18 02:44:07;;;;;;;20.83;15.30;;;1.50;99.90;;;;;;5092458;28;20252;-83
2024/01/18 02:46:33;;;;;;;22.40;13.97;;;1.40;99.90;;;;;;5091221;28;20594;-82
2024/01/18 02:48:59;;;;;;;19.33;14.70;;;1.30;99.90;;;;;;5090531;28;20255;-83
2024/01/18 02:51:26;;;;;;;19.83;14.50;;;1.30;99.90;;;;;;5091886;28;20167;-82
2024/01/18 02:53:51;;;;;;;22.23;15.23;;;1.40;99.90;;;;;;5091385;28;20230;-83
2024/01/18 02:56:17;;;;;;;20.13;15.03;;;1.50;99.90;;;;;;5090267;28;20889;-82
2024/01/18 02:58:42;;;;;;;19.67;14.47;;;1.40;99.90;;;;;;5090723;28;20183;-82
2024/01/18 03:01:11;;;;;;;18.00;13.67;;;1.40;99.90;;;;;;5091255;28;20239;-83
2024/01/18 03:03:37;;;;;;;19.20;14.77;;;1.30;99.90;;;;;;5091037;28;20207;-82
2024/01/18 03:06:03;;;;;;;23.10;15.87;;;1.30;99.90;;;;;;5090842;28;20255;-83
2024/01/18 03:08:28;;;;;;;20.03;14.87;;;1.30;99.90;;;;;;5090861;28;20171;-83
2024/01/18 03:10:54;;;;;;;21.00;14.30;;;1.30;99.90;;;;;;5092309;28;20179;-82
2024/01/18 03:13:20;;;;;;;20.57;15.33;;;1.30;99.90;;;;;;5094868;28;20186;-83
2024/01/18 03:15:45;;;;;;;21.70;16.33;;;1.30;99.90;;;;;;5095381;28;20172;-81
2024/01/18 03:18:11;;;;;;;21.17;15.43;;;1.30;99.90;;;;;;5093934;28;20222;-83
2024/01/18 03:20:37;;;;;;;19.50;14.13;;;1.40;99.90;;;;;;5094483;28;20190;-81
2024/01/18 03:23:03;;;;;;;19.30;15.20;;;1.30;99.90;;;;;;5096031;28;20219;-84
2024/01/18 03:25:29;;;;;;;20.07;14.90;;;1.20;99.90;;;;;;5094427;28;20182;-83
2024/01/18 03:27:55;;;;;;;25.67;15.03;;;1.20;99.90;;;;;;5094358;28;20540;-84
2024/01/18 03:30:20;;;;;;;17.70;14.77;;;1.20;99.90;;;;;;5095961;28;20225;-83
2024/01/18 03:32:49;;;;;;;21.30;14.97;;;1.20;99.90;;;;;;5095376;28;20602;-83
2024/01/18 03:35:15;;;;;;;18.60;14.10;;;1.20;99.90;;;;;;5094391;28;20525;-82
2024/01/18 03:37:40;;;;;;;22.00;15.17;;;1.20;99.90;;;;;;5092759;28;20182;-82
2024/01/18 03:40:10;;;;;;;20.33;14.30;;;1.10;99.90;;;;;;5094862;28;20186;-82
2024/01/18 03:42:40;;;;;;;19.93;14.93;;;1.10;99.90;;;;;;5093393;28;20175;-82
2024/01/18 03:45:06;;;;;;;23.53;15.13;;;1.20;99.90;;;;;;5093427;28;20635;-83
2024/01/18 03:47:31;;;;;;;23.13;14.63;;;1.20;99.90;;;;;;5095791;28;20175;-82
2024/01/18 03:49:57;;;;;;;25.50;15.83;;;1.20;99.90;;;;;;5101034;28;20171;-81
2024/01/18 03:52:23;;;;;;;19.77;14.07;;;1.10;99.90;;;;;;5102496;28;20655;-82
2024/01/18 03:54:48;;;;;;;20.53;15.63;;;1.10;99.90;;;;;;5095828;28;20716;-82
2024/01/18 03:57:14;;;;;;;20.20;15.13;;;1.20;99.90;;;;;;5092281;28;20186;-83
2024/01/18 03:59:40;;;;;;;23.63;15.70;;;1.20;99.90;;;;;;5094415;28;20187;-83
2024/01/18 04:02:06;;;;;;;20.67;15.00;;;1.20;99.90;;;;;;5095414;28;20167;-83
2024/01/18 04:04:32;;;;;;;21.83;14.57;;;1.20;99.90;;;;;;5098630;28;20229;-83
2024/01/18 04:06:58;;;;;;;22.13;15.57;;;1.30;99.90;;;;;;5096367;28;20213;-82
2024/01/18 04:09:24;;;;;;;19.97;15.73;;;1.30;99.90;;;;;;5093793;28;20179;-83
2024/01/18 04:11:49;;;;;;;23.77;16.40;;;1.10;99.90;;;;;;5093657;28;20175;-82
2024/01/18 04:14:15;;;;;;;22.17;15.53;;;1.20;99.90;;;;;;5093326;28;20225;-83
2024/01/18 04:16:41;;;;;;;21.43;16.00;;;1.20;99.90;;;;;;5093566;28;20171;-82
2024/01/18 04:19:07;;;;;;;22.47;15.57;;;1.20;99.90;;;;;;5093517;28;20176;-82
2024/01/18 04:21:33;;;;;;;19.83;15.80;;;1.30;99.90;;;;;;5092930;28;20159;-83
2024/01/18 04:23:58;;;;;;;19.20;15.47;;;1.30;99.90;;;;;;5093107;28;20246;-82
2024/01/18 04:26:25;;;;;;;20.00;15.60;;;1.30;99.90;;;;;;5093227;28;20192;-83
2024/01/18 04:28:51;;;;;;;20.87;15.23;;;1.30;99.90;;;;;;5093382;28;20179;-82
2024/01/18 04:31:16;;;;;;;21.30;16.07;;;1.30;99.90;;;;;;5093114;28;20178;-83
2024/01/18 04:33:42;;;;;;;19.97;15.27;;;1.20;99.90;;;;;;5093095;28;20176;-83
2024/01/18 04:36:08;;;;;;;20.80;14.60;;;1.20;99.90;;;;;;5093381;28;20167;-82
2024/01/18 04:38:34;;;;;;;21.17;15.03;;;1.30;99.90;;;;;;5093785;28;20186;-83
2024/01/18 04:41:00;;;;;;;20.03;14.97;;;1.20;99.90;;;;;;5094770;28;20543;-81
2024/01/18 04:43:25;;;;;;;21.70;15.87;;;1.10;99.90;;;;;;5091923;28;20758;-83
2024/01/18 04:45:51;;;;;;;22.33;14.87;;;1.10;99.90;;;;;;5093333;28;20627;-83
2024/01/18 04:48:17;;;;;;;22.73;16.33;;;1.30;99.90;;;;;;5092900;28;20595;-82
2024/01/18 04:50:42;;;;;;;21.40;16.57;;;1.30;99.90;;;;;;5092010;28;20168;-84
2024/01/18 04:53:08;;;;;;;25.83;16.90;;;1.40;99.90;;;;;;5093129;28;20171;-83
2024/01/18 04:55:33;;;;;;;25.03;17.90;;;1.30;99.90;;;;;;5092419;28;20679;-82
2024/01/18 04:57:59;;;;;;;21.83;15.70;;;1.40;99.90;;;;;;5094066;28;20206;-83
2024/01/18 05:00:25;;;;;;;25.23;17.23;;;1.30;99.90;;;;;;5092580;28;20274;-84
2024/01/18 05:02:51;;;;;;;20.40;16.83;;;1.30;99.90;;;;;;5092558;28;20168;-83
2024/01/18 05:05:16;;;;;;;20.80;16.03;;;1.30;99.90;;;;;;5092709;28;20645;-83
2024/01/18 05:07:42;;;;;;;23.40;17.60;;;1.40;99.90;;;;;;5091629;28;20176;-83
2024/01/18 05:10:09;;;;;;;23.03;16.30;;;1.60;99.90;;;;;;5093431;28;20182;-83
2024/01/18 05:12:35;;;;;;;24.30;17.83;;;1.60;99.90;;;;;;5092431;28;20175;-84
2024/01/18 05:15:01;;;;;;;22.47;16.70;;;1.60;99.90;;;;;;5091978;28;20258;-83
2024/01/18 05:17:37;;;;;;;20.53;15.60;;;1.60;99.90;;;;;;5091978;28;20208;-83
2024/01/18 05:20:07;;;;;;;23.47;16.53;;;1.50;99.90;;;;;;5091807;28;20511;-83
2024/01/18 05:22:33;;;;;;;22.93;16.03;;;1.40;99.90;;;;;;5093499;28;20176;-83
2024/01/18 05:25:00;;;;;;;25.33;17.13;;;1.30;99.90;;;;;;5093535;28;20209;-83
2024/01/18 05:27:28;;;;;;;26.67;16.77;;;1.20;99.90;;;;;;5091994;28;20172;-83
2024/01/18 05:29:54;;;;;;;25.50;17.93;;;1.20;99.90;;;;;;5092224;28;20176;-83
2024/01/18 05:32:23;;;;;;;22.17;17.50;;;1.20;99.90;;;;;;5092207;28;20171;-83
2024/01/18 05:34:49;;;;;;;22.80;17.67;;;1.30;99.90;;;;;;5100200;28;20187;-83
2024/01/18 05:37:15;;;;;;;24.33;18.40;;;1.30;99.90;;;;;;5100317;28;20186;-83
2024/01/18 05:39:41;;;;;;;22.73;18.33;;;1.30;99.90;;;;;;5091700;28;20231;-83
2024/01/18 05:42:07;;;;;;;22.93;17.80;;;1.30;99.90;;;;;;5092078;28;20187;-84
2024/01/18 05:44:33;;;;;;;21.20;15.80;;;1.20;99.90;;;;;;5090174;28;20404;-82
2024/01/18 05:46:59;;;;;;;23.67;17.20;;;1.20;99.90;;;;;;5091733;28;20384;-84
2024/01/18 05:49:25;;;;;;;21.13;17.57;;;1.20;99.90;;;;;;5091035;28;20179;-82
2024/01/18 05:51:51;;;;;;;24.30;17.80;;;1.30;99.90;;;;;;5092160;28;20187;-84
2024/01/18 05:54:17;;;;;;;23.90;16.70;;;1.20;99.90;;;;;;5091077;28;20287;-83
2024/01/18 05:56:46;;;;;;;24.13;16.63;;;1.20;99.90;;;;;;5092901;28;20191;-84
2024/01/18 05:59:11;;;;;;;21.07;17.27;;;1.30;99.90;;;;;;5093225;28;20624;-83
2024/01/18 06:01:37;;;;;;;23.57;16.37;;;1.50;99.90;;;;;;5094455;28;20199;-81
2024/01/18 06:04:03;;;;;;;24.47;19.20;;;1.60;99.90;;;;;;5091881;28;20211;-82
2024/01/18 06:06:28;;;;;;;22.43;17.60;;;1.70;99.90;;;;;;5090843;28;20654;-83
2024/01/18 06:08:54;;;;;;;25.00;16.87;;;1.80;99.90;;;;;;5091206;28;20211;-83
2024/01/18 06:11:20;;;;;;;23.63;17.57;;;1.80;99.90;;;;;;5091451;28;20383;-85
2024/01/18 06:13:45;;;;;;;25.03;17.80;;;1.80;99.90;;;;;;5091309;28;20551;-82
2024/01/18 06:16:11;;;;;;;23.47;17.93;;;1.70;99.90;;;;;;5092811;28;20216;-82
2024/01/18 06:18:37;;;;;;;23.90;18.07;;;1.70;99.90;;;;;;5090864;28;20209;-82
2024/01/18 06:21:10;;;;;;;22.63;18.30;;;1.90;99.90;;;;;;5091668;28;20175;-83
2024/01/18 06:23:36;;;;;;;24.67;17.27;;;1.90;99.90;;;;;;5090836;28;20647;-83
2024/01/18 06:26:02;;;;;;;22.27;17.77;;;1.60;99.90;;;;;;5092387;28;20163;-84
2024/01/18 06:28:28;;;;;;;24.53;17.87;;;1.80;99.90;;;;;;5091429;28;20171;-83
2024/01/18 06:30:54;;;;;;;25.03;17.60;;;1.60;99.90;;;;;;5091383;28;20171;-83
2024/01/18 06:33:20;;;;;;;23.43;17.97;;;1.60;99.90;;;;;;5092691;28;20163;-83
2024/01/18 06:35:46;;;;;;;22.70;18.73;;;1.50;99.90;;;;;;5090227;28;20666;-83
2024/01/18 06:38:13;;;;;;;24.33;17.77;;;1.40;99.90;;;;;;5091606;28;20189;-83
2024/01/18 06:40:40;;;;;;;28.03;17.70;;;1.40;99.90;;;;;;5090997;28;20187;-83
2024/01/18 06:43:06;;;;;;;25.23;17.13;;;1.30;99.90;;;;;;5091296;28;20558;-83
2024/01/18 06:45:32;;;;;;;27.17;17.37;;;1.20;99.90;;;;;;5093809;28;20183;-85
2024/01/18 06:47:57;;;;;;;28.03;18.43;;;1.30;99.90;;;;;;5096571;28;20217;-84
2024/01/18 06:50:23;;;;;;;24.03;17.97;;;1.50;99.90;;;;;;5096943;28;20702;-84
2024/01/18 06:52:51;;;;;;;26.70;19.10;;;1.50;99.90;;;;;;5096178;28;20644;-84
2024/01/18 06:55:17;;;;;;;24.63;17.77;;;1.60;99.90;;;;;;5097968;28;20627;-84
2024/01/18 06:57:47;;;;;;;24.03;19.17;;;1.60;99.90;;;;;;5091504;28;20244;-82
2024/01/18 07:00:13;;;;;;;27.67;18.10;;;1.70;99.90;;;;;;5094727;28;20179;-83
2024/01/18 07:02:39;;;;;;;27.73;19.00;;;1.80;99.90;;;;;;5094303;28;20174;-86
2024/01/18 07:05:05;;;;;;;26.27;19.90;;;1.90;99.90;;;;;;5093605;28;20756;-84
2024/01/18 07:07:30;;;;;;;24.70;19.13;;;1.90;99.90;;;;;;5083433;28;20171;-84
2024/01/18 07:09:56;;;;;;;27.70;19.30;;;2.00;99.90;;;;;;5091055;28;20274;-84
2024/01/18 07:12:22;;;;;;;28.07;20.40;;;2.10;99.90;;;;;;5094513;28;20592;-83
2024/01/18 07:14:47;;;;;;;32.13;21.67;;;1.90;99.90;;;;;;5103125;28;20168;-83
2024/01/18 07:17:13;;;;;;;28.73;20.40;;;2.00;99.90;;;;;;5097762;28;20662;-85
2024/01/18 07:19:38;;;;;;;30.83;22.50;;;2.00;99.90;;;;;;5084049;28;20176;-83
2024/01/18 07:22:04;;;;;;;24.77;19.27;;;2.00;99.90;;;;;;5086589;28;20195;-84
2024/01/18 07:24:30;;;;;;;30.43;21.50;;;2.10;99.90;;;;;;5073473;28;20230;-85
2024/01/18 07:26:59;;;;;;;30.43;21.03;;;1.90;99.90;;;;;;5073830;28;20239;-84
2024/01/18 07:29:24;;;;;;;28.03;21.23;;;1.90;99.90;;;;;;5074091;28;20226;-84
2024/01/18 07:31:50;;;;;;;29.20;20.17;;;1.90;99.90;;;;;;5074183;28;20172;-84
2024/01/18 07:34:16;;;;;;;27.77;20.87;;;1.90;99.90;;;;;;5074016;28;20747;-84
2024/01/18 07:36:43;;;;;;;30.70;21.83;;;1.80;99.90;;;;;;5074264;28;20187;-85
2024/01/18 07:39:09;;;;;;;24.27;20.07;;;1.90;99.90;;;;;;5074432;28;20188;-85
2024/01/18 07:41:35;;;;;;;24.73;21.13;;;1.80;99.90;;;;;;5075257;28;20219;-83
2024/01/18 07:44:00;;;;;;;25.87;20.50;;;1.70;99.90;;;;;;5076787;28;20751;-83
2024/01/18 07:46:26;;;;;;;28.23;21.10;;;1.70;99.90;;;;;;5075624;28;20206;-84
2024/01/18 07:48:52;;;;;;;26.53;19.83;;;1.70;99.90;;;;;;5074477;28;20229;-84
2024/01/18 07:51:18;;;;;;;29.73;20.37;;;1.80;99.90;;;;;;5072469;28;20172;-84
2024/01/18 07:53:44;;;;;;;24.93;18.87;;;1.60;99.90;;;;;;5073637;28;20256;-84
2024/01/18 07:56:11;;;;;;;30.57;21.23;;;1.50;99.90;;;;;;5074447;28;20167;-86
2024/01/18 07:58:40;;;;;;;27.23;19.70;;;1.50;99.90;;;;;;5073832;28;20233;-85
2024/01/18 08:01:06;;;;;;;31.87;19.83;;;1.50;99.90;;;;;;5073543;28;20184;-84
2024/01/18 08:03:32;;;;;;;27.33;20.53;;;1.60;99.90;;;;;;5073372;28;20261;-82
2024/01/18 08:05:58;;;;;;;27.97;20.60;;;1.60;99.90;;;;;;5074934;28;20248;-85
2024/01/18 08:08:23;;;;;;;30.47;20.73;;;1.60;99.90;;;;;;5073706;28;20184;-83
2024/01/18 08:10:49;;;;;;;30.03;19.63;;;1.60;99.90;;;;;;5073795;28;20218;-84
2024/01/18 08:13:15;;;;;;;24.63;19.63;;;1.50;99.90;;;;;;5073078;28;20180;-85
2024/01/18 08:15:41;;;;;;;32.63;20.20;;;1.50;99.90;;;;;;5072873;28;20203;-85
2024/01/18 08:18:06;;;;;;;30.33;20.87;;;1.50;99.90;;;;;;5072486;28;20245;-84
2024/01/18 08:20:32;;;;;;;31.77;21.40;;;1.60;99.90;;;;;;5073081;28;20567;-82
2024/01/18 08:22:58;;;;;;;35.27;27.37;;;1.60;99.90;;;;;;5074575;28;20168;-84
2024/01/18 08:25:24;;;;;;;32.73;22.90;;;1.60;99.90;;;;;;5073779;28;20187;-85
2024/01/18 08:27:54;;;;;;;33.07;23.20;;;1.60;99.90;;;;;;5074526;28;20248;-83
2024/01/18 08:30:20;;;;;;;35.00;23.73;;;1.50;99.90;;;;;;5074781;28;20196;-83
2024/01/18 08:32:46;;;;;;;42.17;29.57;;;1.40;99.90;;;;;;5073003;28;20255;-83
2024/01/18 08:35:11;;;;;;;43.70;23.83;;;1.50;99.90;;;;;;5072760;28;20267;-84
2024/01/18 08:37:37;;;;;;;30.37;22.07;;;1.40;99.90;;;;;;5072968;28;20179;-83
2024/01/18 08:40:04;;;;;;;29.83;21.23;;;1.50;99.90;;;;;;5073488;28;20180;-83
2024/01/18 08:42:29;;;;;;;33.40;23.30;;;1.60;99.90;;;;;;5073032;28;20225;-88
2024/01/18 08:44:55;;;;;;;31.03;21.80;;;1.60;99.90;;;;;;5073826;28;20573;-85
2024/01/18 08:47:22;;;;;;;27.77;22.33;;;1.70;99.90;;;;;;5072682;28;20682;-83
2024/01/18 08:49:48;;;;;;;32.70;22.43;;;1.80;99.90;;;;;;5072559;28;20172;-83
2024/01/18 08:52:14;;;;;;;32.57;22.30;;;1.90;99.90;;;;;;5073171;28;20175;-82
2024/01/18 08:54:42;;;;;;;37.67;24.93;;;1.90;99.90;;;;;;5073164;28;20547;-84
2024/01/18 08:57:08;;;;;;;35.17;24.20;;;1.90;99.90;;;;;;5079478;28;20195;-81
2024/01/18 08:59:34;;;;;;;35.17;24.43;;;1.90;99.90;;;;;;5081701;28;20172;-84
2024/01/18 09:01:59;;;;;;;35.17;24.23;;;1.90;99.90;;;;;;5075393;28;20184;-84
2024/01/18 09:04:27;;;;;;;29.47;21.93;;;2.00;99.90;;;;;;5073465;28;20200;-84
2024/01/18 09:06:52;;;;;;;33.20;23.67;;;2.00;99.90;;;;;;5072153;28;20187;-83
2024/01/18 09:09:18;;;;;;;31.40;22.90;;;2.00;99.90;;;;;;5071924;28;20180;-84
2024/01/18 09:11:43;;;;;;;33.33;23.00;;;2.10;99.90;;;;;;5072572;28;20199;-83
2024/01/18 09:14:09;;;;;;;29.70;21.60;;;2.20;99.90;;;;;;5072301;28;20168;-85
2024/01/18 09:16:35;;;;;;;28.53;20.30;;;2.30;99.90;;;;;;5072185;28;20573;-84
2024/01/18 09:19:00;;;;;;;33.83;21.90;;;2.40;99.90;;;;;;5071742;28;20172;-84
2024/01/18 09:21:26;;;;;;;27.87;20.87;;;2.40;99.90;;;;;;5072166;28;20176;-83
2024/01/18 09:23:52;;;;;;;31.30;20.23;;;2.40;99.90;;;;;;5071832;28;20215;-83
2024/01/18 09:26:18;;;;;;;28.00;21.80;;;2.20;99.90;;;;;;5072229;28;20180;-83
2024/01/18 09:28:44;;;;;;;29.67;22.90;;;2.00;99.90;;;;;;5072125;28;20259;-85
2024/01/18 09:31:10;;;;;;;26.87;20.93;;;2.00;99.90;;;;;;5072030;28;20183;-83
2024/01/18 09:33:39;;;;;;;32.00;22.07;;;2.00;99.90;;;;;;5072074;28;20528;-86
2024/01/18 09:36:06;;;;;;;31.60;21.77;;;2.40;99.90;;;;;;5072086;28;20603;-85
2024/01/18 09:38:33;;;;;;;28.53;20.73;;;2.40;99.90;;;;;;5071996;28;20180;-85
2024/01/18 09:41:06;;;;;;;29.90;20.63;;;2.50;99.90;;;;;;5071880;28;20180;-85
2024/01/18 09:43:39;;;;;;;28.03;20.43;;;2.60;99.90;;;;;;5072845;28;20253;-84
2024/01/18 09:46:08;;;;;;;26.93;21.63;;;2.70;99.90;;;;;;5074057;28;20191;-84
2024/01/18 09:48:37;;;;;;;34.40;22.57;;;2.80;99.90;;;;;;5079545;28;20180;-84
2024/01/18 09:51:06;;;;;;;36.50;24.57;;;2.80;99.90;;;;;;5072080;28;20222;-83
2024/01/18 09:53:33;;;;;;;31.83;22.77;;;2.60;99.90;;;;;;5071798;28;20195;-85
2024/01/18 09:56:06;;;;;;;36.57;22.93;;;2.90;99.90;;;;;;5071706;28;20175;-83
2024/01/18 09:58:32;;;;;;;39.47;24.10;;;2.70;99.90;;;;;;5071317;28;20188;-83
2024/01/18 10:01:03;;;;;;;40.97;25.83;;;2.70;99.90;;;;;;5071593;28;20624;-84
2024/01/18 10:03:29;;;;;;;38.73;26.10;;;2.80;99.90;;;;;;5071844;28;20211;-85
2024/01/18 10:05:54;;;;;;;34.37;23.53;;;2.90;99.90;;;;;;5071891;28;20540;-83
2024/01/18 10:08:20;;;;;;;30.70;23.33;;;2.80;99.90;;;;;;5070742;28;20172;-85
2024/01/18 10:10:45;;;;;;;32.60;23.57;;;2.90;99.90;;;;;;5071285;28;20659;-84
2024/01/18 10:13:13;;;;;;;30.80;22.53;;;3.10;99.90;;;;;;5072147;28;20222;-82
2024/01/18 10:15:39;;;;;;;28.40;21.47;;;3.00;99.90;;;;;;5083446;28;20682;-83
2024/01/18 10:18:06;;;;;;;28.67;21.13;;;3.10;99.90;;;;;;5091684;28;20210;-84
2024/01/18 10:20:32;;;;;;;27.43;22.57;;;3.20;99.90;;;;;;5088489;28;20253;-85
2024/01/18 10:22:59;;;;;;;33.40;22.97;;;3.30;99.90;;;;;;5078043;28;20205;-83
2024/01/18 10:25:29;;;;;;;29.20;22.30;;;3.40;99.90;;;;;;5079156;28;20175;-83
2024/01/18 10:27:56;;;;;;;29.37;20.40;;;3.50;99.90;;;;;;5077582;28;20644;-85
2024/01/18 10:30:23;;;;;;;27.33;20.67;;;3.50;99.90;;;;;;5077804;28;20176;-84
2024/01/18 10:32:49;;;;;;;28.63;21.43;;;3.50;99.90;;;;;;5078154;28;20172;-83
2024/01/18 10:35:24;;;;;;;28.17;21.60;;;3.70;99.90;;;;;;5081319;28;20227;-83
2024/01/18 10:38:06;;;;;;;31.37;21.43;;;3.80;99.90;;;;;;5091366;28;20191;-84
2024/01/18 10:40:36;;;;;;;25.63;20.57;;;3.90;99.90;;;;;;5082414;28;20184;-83
2024/01/18 10:43:03;;;;;;;29.93;21.40;;;3.90;99.90;;;;;;5079288;28;20260;-83
2024/01/18 10:45:31;;;;;;;32.60;22.67;;;4.00;99.90;;;;;;5078087;28;20211;-85
2024/01/18 10:47:57;;;;;;;32.20;22.93;;;4.00;99.90;;;;;;5078027;28;20168;-85
2024/01/18 10:50:24;;;;;;;26.07;21.43;;;3.90;99.90;;;;;;5077938;28;20176;-83
2024/01/18 10:52:51;;;;;;;27.00;20.80;;;4.00;99.90;;;;;;5077911;28;20180;-84
2024/01/18 10:55:17;;;;;;;30.13;21.17;;;4.00;99.90;;;;;;5078355;28;20168;-83
2024/01/18 10:57:42;;;;;;;24.67;19.47;;;4.00;99.90;;;;;;5079516;28;20558;-83
2024/01/18 11:00:08;;;;;;;26.07;20.60;;;3.90;99.90;;;;;;5077443;28;20164;-84
2024/01/18 11:02:39;;;;;;;25.60;19.17;;;3.90;99.90;;;;;;5077474;28;20199;-84
2024/01/18 11:05:09;;;;;;;28.50;19.90;;;3.90;99.90;;;;;;5077510;28;20203;-85
2024/01/18 11:07:37;;;;;;;31.13;19.30;;;3.90;99.90;;;;;;5077509;28;20637;-83
2024/01/18 11:10:12;;;;;;;25.30;21.37;;;4.00;99.90;;;;;;5077718;28;20677;-85
2024/01/18 11:12:43;;;;;;;28.60;20.47;;;4.30;99.90;;;;;;5077460;28;20180;-83
2024/01/18 11:15:10;;;;;;;26.80;20.43;;;4.50;99.90;;;;;;5077608;28;20266;-84
2024/01/18 11:17:46;;;;;;;25.27;19.93;;;4.70;1.00;;;;;;5078300;28;20223;-84
2024/01/18 11:20:13;;;;;;;24.57;19.40;;;4.70;1.00;;;;;;5077796;28;20245;-84
2024/01/18 11:22:39;;;;;;;25.60;19.80;;;4.80;1.00;;;;;;5077199;28;20168;-83
2024/01/18 11:25:07;;;;;;;25.43;19.13;;;4.70;1.00;;;;;;5077119;28;20311;-83
2024/01/18 11:27:42;;;;;;;25.70;19.47;;;4.60;1.00;;;;;;5077067;28;20168;-84
2024/01/18 11:30:10;;;;;;;23.17;19.30;;;4.50;1.00;;;;;;5077399;28;20175;-84
2024/01/18 11:32:37;;;;;;;23.00;18.53;;;4.40;1.00;;;;;;5073222;28;20206;-84
2024/01/18 11:35:15;;;;;;;18.97;16.93;;;4.40;1.00;;;;;;5074119;28;20205;-85
2024/01/18 11:37:41;;;;;;;21.63;14.90;;;4.50;1.00;;;;;;5074068;28;20208;-85
2024/01/18 11:40:10;;;;;;;22.00;16.67;;;4.60;1.00;;;;;;5074067;28;20173;-84
2024/01/18 11:42:40;;;;;;;21.50;16.73;;;4.70;1.00;;;;;;5074029;28;20172;-84
2024/01/18 11:45:29;;;;;;;19.67;16.37;;;4.80;1.00;;;;;;5074017;28;20675;-85
2024/01/18 11:47:55;;;;;;;19.37;15.37;;;4.90;1.00;;;;;;5074058;28;20168;-85
2024/01/18 11:50:21;;;;;;;20.33;14.43;;;5.20;1.00;;;;;;5074291;28;20727;-84
2024/01/18 11:52:47;;;;;;;18.50;13.43;;;5.40;1.00;;;;;;5073728;28;20168;-84
2024/01/18 11:55:17;;;;;;;19.07;14.73;;;5.40;1.00;;;;;;5073233;28;20594;-84
2024/01/18 11:57:43;;;;;;;17.27;13.20;;;5.40;1.00;;;;;;5073447;28;20192;-84
2024/01/18 12:00:10;;;;;;;19.77;13.77;;;5.50;1.00;;;;;;5073357;28;20548;-83
2024/01/18 12:02:36;;;;;;;19.40;12.23;;;5.70;1.00;;;;;;5073277;28;20168;-83
2024/01/18 12:05:04;;;;;;;16.83;12.87;;;5.90;1.00;;;;;;5074894;28;20249;-86
2024/01/18 12:07:30;;;;;;;19.50;13.57;;;5.70;1.00;;;;;;5073337;28;20176;-84
2024/01/18 12:09:57;;;;;;;18.77;14.23;;;5.70;1.00;;;;;;5073635;28;20306;-85
2024/01/18 12:12:24;;;;;;;22.23;15.27;;;5.70;1.00;;;;;;5073348;28;20172;-84
2024/01/18 12:14:49;;;;;;;16.83;14.03;;;5.60;1.00;;;;;;5074378;28;20548;-84
2024/01/18 12:17:16;;;;;;;24.37;14.60;;;5.50;1.00;;;;;;5078375;28;20200;-82
2024/01/18 12:19:44;;;;;;;19.33;14.40;;;5.50;1.00;;;;;;5077439;28;20638;-83
2024/01/18 12:22:17;;;;;;;16.83;11.87;;;5.60;1.00;;;;;;5073519;28;20172;-84
2024/01/18 12:24:46;;;;;;;17.17;12.97;;;5.60;1.00;;;;;;5072715;28;20211;-83
2024/01/18 12:27:12;;;;;;;24.27;13.33;;;5.30;1.00;;;;;;5073129;28;20271;-84
2024/01/18 12:29:40;;;;;;;17.27;12.47;;;5.10;1.00;;;;;;5072911;28;20179;-84
2024/01/18 12:32:08;;;;;;;17.93;12.70;;;5.20;1.00;;;;;;5072949;28;20168;-85
2024/01/18 12:34:35;;;;;;;16.10;11.90;;;5.20;1.00;;;;;;5074610;28;20175;-84